sensor_id;sensor_type;location;lat;lon;timestamp;P1;durP1;ratioP1;P2;durP2;ratioP2
10295;SDS011;5193;51.032;6.356;2022-12-29T00:01:35;0.40;;;0.40;;
10295;SDS011;5193;51.032;6.356;2022-12-29T00:04:02;0.50;;;0.40;;
10295;SDS011;5193;51.032;6.356;2022-12-29T00:06:28;0.30;;;0.30;;
10295;SDS011;5193;51.032;6.356;2022-12-29T00:08:54;0.50;;;0.40;;
10295;SDS011;5193;51.032;6.356;2022-12-29T00:11:20;0.97;;;0.30;;
10295;SDS011;5193;51.032;6.356;2022-12-29T00:13:47;0.43;;;0.40;;
10295;SDS011;5193;51.032;6.356;2022-12-29T00:16:32;0.23;;;0.23;;
10295;SDS011;5193;51.032;6.356;2022-12-29T00:18:59;1.03;;;0.40;;
10295;SDS011;5193;51.032;6.356;2022-12-29T00:21:25;0.40;;;0.40;;
10295;SDS011;5193;51.032;6.356;2022-12-29T00:24:12;0.57;;;0.50;;
10295;SDS011;5193;51.032;6.356;2022-12-29T00:27:11;0.60;;;0.40;;
10295;SDS011;5193;51.032;6.356;2022-12-29T00:29:56;0.30;;;0.30;;
10295;SDS011;5193;51.032;6.356;2022-12-29T00:32:40;0.40;;;0.40;;
10295;SDS011;5193;51.032;6.356;2022-12-29T00:35:29;0.20;;;0.20;;
10295;SDS011;5193;51.032;6.356;2022-12-29T00:38:11;0.63;;;0.40;;
10295;SDS011;5193;51.032;6.356;2022-12-29T00:40:56;0.30;;;0.30;;
10295;SDS011;5193;51.032;6.356;2022-12-29T00:43:40;0.87;;;0.30;;
10295;SDS011;5193;51.032;6.356;2022-12-29T00:46:24;1.00;;;0.40;;
10295;SDS011;5193;51.032;6.356;2022-12-29T00:48:49;0.80;;;0.40;;
10295;SDS011;5193;51.032;6.356;2022-12-29T00:51:34;0.40;;;0.40;;
10295;SDS011;5193;51.032;6.356;2022-12-29T00:53:59;1.50;;;0.23;;
10295;SDS011;5193;51.032;6.356;2022-12-29T00:56:25;0.50;;;0.40;;
10295;SDS011;5193;51.032;6.356;2022-12-29T00:58:50;0.33;;;0.33;;
10295;SDS011;5193;51.032;6.356;2022-12-29T01:01:16;0.40;;;0.40;;
10295;SDS011;5193;51.032;6.356;2022-12-29T01:03:42;0.50;;;0.40;;
10295;SDS011;5193;51.032;6.356;2022-12-29T01:06:08;0.30;;;0.30;;
10295;SDS011;5193;51.032;6.356;2022-12-29T01:08:35;0.40;;;0.40;;
10295;SDS011;5193;51.032;6.356;2022-12-29T01:11:02;0.40;;;0.40;;
10295;SDS011;5193;51.032;6.356;2022-12-29T01:13:32;0.40;;;0.40;;
10295;SDS011;5193;51.032;6.356;2022-12-29T01:15:58;0.30;;;0.30;;
10295;SDS011;5193;51.032;6.356;2022-12-29T01:18:24;0.30;;;0.30;;
10295;SDS011;5193;51.032;6.356;2022-12-29T01:20:50;0.30;;;0.30;;
10295;SDS011;5193;51.032;6.356;2022-12-29T01:23:23;0.40;;;0.40;;
10295;SDS011;5193;51.032;6.356;2022-12-29T01:25:49;0.30;;;0.30;;
10295;SDS011;5193;51.032;6.356;2022-12-29T01:28:14;0.70;;;0.50;;
10295;SDS011;5193;51.032;6.356;2022-12-29T01:30:40;2.00;;;0.37;;
10295;SDS011;5193;51.032;6.356;2022-12-29T01:33:05;0.50;;;0.50;;
10295;SDS011;5193;51.032;6.356;2022-12-29T01:35:31;2.30;;;0.70;;
10295;SDS011;5193;51.032;6.356;2022-12-29T01:37:57;1.10;;;0.60;;
10295;SDS011;5193;51.032;6.356;2022-12-29T01:40:23;0.67;;;0.60;;
10295;SDS011;5193;51.032;6.356;2022-12-29T01:42:49;0.50;;;0.50;;
10295;SDS011;5193;51.032;6.356;2022-12-29T01:45:15;1.83;;;0.60;;
10295;SDS011;5193;51.032;6.356;2022-12-29T01:47:49;1.77;;;0.80;;
10295;SDS011;5193;51.032;6.356;2022-12-29T01:50:25;0.50;;;0.40;;
10295;SDS011;5193;51.032;6.356;2022-12-29T01:53:02;0.60;;;0.57;;
10295;SDS011;5193;51.032;6.356;2022-12-29T01:55:32;1.67;;;0.70;;
10295;SDS011;5193;51.032;6.356;2022-12-29T01:58:01;1.23;;;0.50;;
10295;SDS011;5193;51.032;6.356;2022-12-29T02:00:29;1.20;;;0.73;;
10295;SDS011;5193;51.032;6.356;2022-12-29T02:02:55;4.23;;;0.80;;
10295;SDS011;5193;51.032;6.356;2022-12-29T02:07:52;0.70;;;0.70;;
10295;SDS011;5193;51.032;6.356;2022-12-29T02:10:21;1.43;;;0.70;;
10295;SDS011;5193;51.032;6.356;2022-12-29T02:12:49;0.57;;;0.57;;
10295;SDS011;5193;51.032;6.356;2022-12-29T02:15:15;1.40;;;0.73;;
10295;SDS011;5193;51.032;6.356;2022-12-29T02:20:20;0.57;;;0.57;;
10295;SDS011;5193;51.032;6.356;2022-12-29T02:31:41;2.30;;;0.70;;
10295;SDS011;5193;51.032;6.356;2022-12-29T02:37:03;2.07;;;0.93;;
10295;SDS011;5193;51.032;6.356;2022-12-29T02:45:42;1.50;;;0.60;;
10295;SDS011;5193;51.032;6.356;2022-12-29T02:48:29;3.43;;;0.70;;
10295;SDS011;5193;51.032;6.356;2022-12-29T02:51:03;1.63;;;0.60;;
10295;SDS011;5193;51.032;6.356;2022-12-29T02:53:33;0.80;;;0.70;;
10295;SDS011;5193;51.032;6.356;2022-12-29T02:56:20;0.73;;;0.60;;
10295;SDS011;5193;51.032;6.356;2022-12-29T02:58:46;0.50;;;0.50;;
10295;SDS011;5193;51.032;6.356;2022-12-29T03:03:48;1.13;;;0.50;;
10295;SDS011;5193;51.032;6.356;2022-12-29T03:11:59;1.67;;;0.63;;
10295;SDS011;5193;51.032;6.356;2022-12-29T03:15:18;1.83;;;0.70;;
10295;SDS011;5193;51.032;6.356;2022-12-29T03:20:28;0.40;;;0.30;;
10295;SDS011;5193;51.032;6.356;2022-12-29T03:23:01;0.33;;;0.33;;
10295;SDS011;5193;51.032;6.356;2022-12-29T03:25:39;0.40;;;0.40;;
10295;SDS011;5193;51.032;6.356;2022-12-29T03:28:10;4.80;;;0.73;;
10295;SDS011;5193;51.032;6.356;2022-12-29T03:30:38;1.07;;;0.40;;
10295;SDS011;5193;51.032;6.356;2022-12-29T03:33:07;0.40;;;0.40;;
10295;SDS011;5193;51.032;6.356;2022-12-29T03:35:35;0.50;;;0.50;;
10295;SDS011;5193;51.032;6.356;2022-12-29T03:38:11;0.50;;;0.50;;
10295;SDS011;5193;51.032;6.356;2022-12-29T03:40:39;0.63;;;0.50;;
10295;SDS011;5193;51.032;6.356;2022-12-29T03:43:08;0.67;;;0.50;;
10295;SDS011;5193;51.032;6.356;2022-12-29T03:45:35;1.00;;;0.50;;
10295;SDS011;5193;51.032;6.356;2022-12-29T03:48:00;1.77;;;0.50;;
10295;SDS011;5193;51.032;6.356;2022-12-29T03:50:26;1.07;;;0.40;;
10295;SDS011;5193;51.032;6.356;2022-12-29T03:52:51;0.53;;;0.50;;
10295;SDS011;5193;51.032;6.356;2022-12-29T03:55:17;0.20;;;0.20;;
10295;SDS011;5193;51.032;6.356;2022-12-29T03:57:43;0.80;;;0.60;;
10295;SDS011;5193;51.032;6.356;2022-12-29T04:00:08;0.40;;;0.40;;
10295;SDS011;5193;51.032;6.356;2022-12-29T04:02:35;1.70;;;0.67;;
10295;SDS011;5193;51.032;6.356;2022-12-29T04:05:01;1.50;;;0.67;;
10295;SDS011;5193;51.032;6.356;2022-12-29T04:07:26;0.83;;;0.40;;
10295;SDS011;5193;51.032;6.356;2022-12-29T04:09:52;0.50;;;0.50;;
10295;SDS011;5193;51.032;6.356;2022-12-29T04:12:17;0.50;;;0.50;;
10295;SDS011;5193;51.032;6.356;2022-12-29T04:14:43;0.40;;;0.40;;
10295;SDS011;5193;51.032;6.356;2022-12-29T04:17:08;0.40;;;0.40;;
10295;SDS011;5193;51.032;6.356;2022-12-29T04:19:34;0.97;;;0.60;;
10295;SDS011;5193;51.032;6.356;2022-12-29T04:21:59;1.20;;;0.77;;
10295;SDS011;5193;51.032;6.356;2022-12-29T04:24:25;1.77;;;0.67;;
10295;SDS011;5193;51.032;6.356;2022-12-29T04:26:51;6.10;;;0.60;;
10295;SDS011;5193;51.032;6.356;2022-12-29T04:29:16;1.10;;;0.70;;
10295;SDS011;5193;51.032;6.356;2022-12-29T04:31:42;3.20;;;0.50;;
10295;SDS011;5193;51.032;6.356;2022-12-29T04:34:07;1.03;;;0.40;;
10295;SDS011;5193;51.032;6.356;2022-12-29T04:36:33;0.63;;;0.50;;
10295;SDS011;5193;51.032;6.356;2022-12-29T04:38:58;0.93;;;0.63;;
10295;SDS011;5193;51.032;6.356;2022-12-29T04:41:24;0.63;;;0.53;;
10295;SDS011;5193;51.032;6.356;2022-12-29T04:43:50;3.20;;;0.60;;
10295;SDS011;5193;51.032;6.356;2022-12-29T04:46:16;1.80;;;0.93;;
10295;SDS011;5193;51.032;6.356;2022-12-29T04:48:42;0.50;;;0.50;;
10295;SDS011;5193;51.032;6.356;2022-12-29T04:51:07;2.13;;;1.00;;
10295;SDS011;5193;51.032;6.356;2022-12-29T04:53:33;1.37;;;0.60;;
10295;SDS011;5193;51.032;6.356;2022-12-29T04:55:58;6.57;;;0.57;;
10295;SDS011;5193;51.032;6.356;2022-12-29T04:58:24;2.10;;;0.90;;
10295;SDS011;5193;51.032;6.356;2022-12-29T05:00:50;3.63;;;0.60;;
10295;SDS011;5193;51.032;6.356;2022-12-29T05:03:16;4.53;;;0.70;;
10295;SDS011;5193;51.032;6.356;2022-12-29T05:05:42;1.03;;;0.60;;
10295;SDS011;5193;51.032;6.356;2022-12-29T05:08:07;2.43;;;0.80;;
10295;SDS011;5193;51.032;6.356;2022-12-29T05:10:33;1.90;;;0.90;;
10295;SDS011;5193;51.032;6.356;2022-12-29T05:12:58;1.80;;;0.70;;
10295;SDS011;5193;51.032;6.356;2022-12-29T05:15:24;1.47;;;0.80;;
10295;SDS011;5193;51.032;6.356;2022-12-29T05:17:50;1.63;;;0.70;;
10295;SDS011;5193;51.032;6.356;2022-12-29T05:20:15;0.97;;;0.30;;
10295;SDS011;5193;51.032;6.356;2022-12-29T05:22:41;0.40;;;0.30;;
10295;SDS011;5193;51.032;6.356;2022-12-29T05:25:07;1.07;;;0.50;;
10295;SDS011;5193;51.032;6.356;2022-12-29T05:27:33;2.83;;;0.70;;
10295;SDS011;5193;51.032;6.356;2022-12-29T05:29:59;3.23;;;0.80;;
10295;SDS011;5193;51.032;6.356;2022-12-29T05:32:25;1.50;;;0.80;;
10295;SDS011;5193;51.032;6.356;2022-12-29T05:34:50;4.23;;;0.67;;
10295;SDS011;5193;51.032;6.356;2022-12-29T05:37:16;1.73;;;0.50;;
10295;SDS011;5193;51.032;6.356;2022-12-29T05:39:41;1.03;;;0.53;;
10295;SDS011;5193;51.032;6.356;2022-12-29T05:42:07;2.50;;;0.60;;
10295;SDS011;5193;51.032;6.356;2022-12-29T05:44:33;2.53;;;0.60;;
10295;SDS011;5193;51.032;6.356;2022-12-29T05:46:58;0.40;;;0.40;;
10295;SDS011;5193;51.032;6.356;2022-12-29T05:49:24;3.60;;;0.70;;
10295;SDS011;5193;51.032;6.356;2022-12-29T05:51:49;2.93;;;0.53;;
10295;SDS011;5193;51.032;6.356;2022-12-29T05:54:15;1.80;;;0.73;;
10295;SDS011;5193;51.032;6.356;2022-12-29T05:56:40;1.57;;;0.50;;
10295;SDS011;5193;51.032;6.356;2022-12-29T05:59:06;2.00;;;0.70;;
10295;SDS011;5193;51.032;6.356;2022-12-29T06:01:32;1.73;;;0.60;;
10295;SDS011;5193;51.032;6.356;2022-12-29T06:03:59;0.60;;;0.40;;
10295;SDS011;5193;51.032;6.356;2022-12-29T06:06:25;1.87;;;0.87;;
10295;SDS011;5193;51.032;6.356;2022-12-29T06:08:50;1.37;;;0.37;;
10295;SDS011;5193;51.032;6.356;2022-12-29T06:11:16;3.50;;;0.70;;
10295;SDS011;5193;51.032;6.356;2022-12-29T06:13:41;2.07;;;0.83;;
10295;SDS011;5193;51.032;6.356;2022-12-29T06:16:07;0.77;;;0.50;;
10295;SDS011;5193;51.032;6.356;2022-12-29T06:18:33;3.17;;;0.67;;
10295;SDS011;5193;51.032;6.356;2022-12-29T06:20:59;4.57;;;0.90;;
10295;SDS011;5193;51.032;6.356;2022-12-29T06:23:26;2.20;;;0.80;;
10295;SDS011;5193;51.032;6.356;2022-12-29T06:25:52;3.27;;;0.90;;
10295;SDS011;5193;51.032;6.356;2022-12-29T06:28:18;2.43;;;0.77;;
10295;SDS011;5193;51.032;6.356;2022-12-29T06:30:44;2.80;;;0.60;;
10295;SDS011;5193;51.032;6.356;2022-12-29T06:33:10;1.80;;;0.70;;
10295;SDS011;5193;51.032;6.356;2022-12-29T06:35:36;1.27;;;0.67;;
10295;SDS011;5193;51.032;6.356;2022-12-29T06:38:02;2.03;;;0.63;;
10295;SDS011;5193;51.032;6.356;2022-12-29T06:40:28;2.43;;;0.70;;
10295;SDS011;5193;51.032;6.356;2022-12-29T06:42:53;5.83;;;0.90;;
10295;SDS011;5193;51.032;6.356;2022-12-29T06:45:19;1.63;;;0.60;;
10295;SDS011;5193;51.032;6.356;2022-12-29T06:47:44;4.67;;;0.87;;
10295;SDS011;5193;51.032;6.356;2022-12-29T06:50:10;2.97;;;0.60;;
10295;SDS011;5193;51.032;6.356;2022-12-29T06:52:35;1.80;;;0.50;;
10295;SDS011;5193;51.032;6.356;2022-12-29T06:55:01;3.57;;;0.73;;
10295;SDS011;5193;51.032;6.356;2022-12-29T06:57:27;2.67;;;0.63;;
10295;SDS011;5193;51.032;6.356;2022-12-29T06:59:52;1.33;;;0.50;;
10295;SDS011;5193;51.032;6.356;2022-12-29T07:02:20;4.63;;;0.97;;
10295;SDS011;5193;51.032;6.356;2022-12-29T07:04:46;3.20;;;0.80;;
10295;SDS011;5193;51.032;6.356;2022-12-29T07:07:12;1.10;;;0.60;;
10295;SDS011;5193;51.032;6.356;2022-12-29T07:09:37;3.43;;;0.90;;
10295;SDS011;5193;51.032;6.356;2022-12-29T07:12:03;2.03;;;0.73;;
10295;SDS011;5193;51.032;6.356;2022-12-29T07:14:29;4.50;;;0.93;;
10295;SDS011;5193;51.032;6.356;2022-12-29T07:16:54;1.60;;;0.70;;
10295;SDS011;5193;51.032;6.356;2022-12-29T07:19:20;2.97;;;0.80;;
10295;SDS011;5193;51.032;6.356;2022-12-29T07:21:45;2.10;;;0.90;;
10295;SDS011;5193;51.032;6.356;2022-12-29T07:24:11;6.80;;;1.17;;
10295;SDS011;5193;51.032;6.356;2022-12-29T07:26:37;2.17;;;1.00;;
10295;SDS011;5193;51.032;6.356;2022-12-29T07:29:03;4.40;;;1.10;;
10295;SDS011;5193;51.032;6.356;2022-12-29T07:31:29;1.70;;;0.63;;
10295;SDS011;5193;51.032;6.356;2022-12-29T07:33:54;4.20;;;0.90;;
10295;SDS011;5193;51.032;6.356;2022-12-29T07:36:20;4.77;;;0.87;;
10295;SDS011;5193;51.032;6.356;2022-12-29T07:38:45;4.87;;;0.87;;
10295;SDS011;5193;51.032;6.356;2022-12-29T07:41:11;2.40;;;0.73;;
10295;SDS011;5193;51.032;6.356;2022-12-29T07:43:37;6.33;;;1.17;;
10295;SDS011;5193;51.032;6.356;2022-12-29T07:46:02;3.33;;;1.27;;
10295;SDS011;5193;51.032;6.356;2022-12-29T07:48:28;5.50;;;1.00;;
10295;SDS011;5193;51.032;6.356;2022-12-29T07:50:53;3.07;;;1.20;;
10295;SDS011;5193;51.032;6.356;2022-12-29T07:53:19;4.83;;;0.80;;
10295;SDS011;5193;51.032;6.356;2022-12-29T07:55:45;3.03;;;0.80;;
10295;SDS011;5193;51.032;6.356;2022-12-29T07:58:11;4.53;;;0.90;;
10295;SDS011;5193;51.032;6.356;2022-12-29T08:00:37;1.13;;;0.50;;
10295;SDS011;5193;51.032;6.356;2022-12-29T08:03:03;2.00;;;0.83;;
10295;SDS011;5193;51.032;6.356;2022-12-29T08:05:30;3.90;;;1.07;;
10295;SDS011;5193;51.032;6.356;2022-12-29T08:07:57;3.47;;;1.00;;
10295;SDS011;5193;51.032;6.356;2022-12-29T08:10:23;3.37;;;0.90;;
10295;SDS011;5193;51.032;6.356;2022-12-29T08:12:49;4.00;;;1.23;;
10295;SDS011;5193;51.032;6.356;2022-12-29T08:15:14;5.57;;;1.20;;
10295;SDS011;5193;51.032;6.356;2022-12-29T08:17:40;3.20;;;0.87;;
10295;SDS011;5193;51.032;6.356;2022-12-29T08:20:05;5.90;;;1.23;;
10295;SDS011;5193;51.032;6.356;2022-12-29T08:22:32;9.53;;;1.40;;
10295;SDS011;5193;51.032;6.356;2022-12-29T08:24:57;5.47;;;0.93;;
10295;SDS011;5193;51.032;6.356;2022-12-29T08:27:23;5.50;;;0.90;;
10295;SDS011;5193;51.032;6.356;2022-12-29T08:29:48;6.93;;;1.97;;
10295;SDS011;5193;51.032;6.356;2022-12-29T08:32:14;7.87;;;1.30;;
10295;SDS011;5193;51.032;6.356;2022-12-29T08:34:40;3.10;;;0.70;;
10295;SDS011;5193;51.032;6.356;2022-12-29T08:37:05;8.43;;;1.10;;
10295;SDS011;5193;51.032;6.356;2022-12-29T08:39:31;4.73;;;0.80;;
10295;SDS011;5193;51.032;6.356;2022-12-29T08:41:56;6.03;;;1.40;;
10295;SDS011;5193;51.032;6.356;2022-12-29T08:44:22;2.10;;;0.70;;
10295;SDS011;5193;51.032;6.356;2022-12-29T08:46:48;5.83;;;1.30;;
10295;SDS011;5193;51.032;6.356;2022-12-29T08:49:13;5.53;;;1.07;;
10295;SDS011;5193;51.032;6.356;2022-12-29T08:51:39;4.97;;;1.30;;
10295;SDS011;5193;51.032;6.356;2022-12-29T08:54:05;7.37;;;1.13;;
10295;SDS011;5193;51.032;6.356;2022-12-29T08:56:31;3.73;;;0.87;;
10295;SDS011;5193;51.032;6.356;2022-12-29T08:58:57;4.87;;;1.10;;
10295;SDS011;5193;51.032;6.356;2022-12-29T09:01:22;5.07;;;1.07;;
10295;SDS011;5193;51.032;6.356;2022-12-29T09:03:48;4.07;;;0.90;;
10295;SDS011;5193;51.032;6.356;2022-12-29T09:06:14;1.87;;;0.70;;
10295;SDS011;5193;51.032;6.356;2022-12-29T09:08:41;5.93;;;1.00;;
10295;SDS011;5193;51.032;6.356;2022-12-29T09:11:14;7.47;;;0.87;;
10295;SDS011;5193;51.032;6.356;2022-12-29T09:13:45;5.97;;;0.90;;
10295;SDS011;5193;51.032;6.356;2022-12-29T09:16:11;5.87;;;1.00;;
10295;SDS011;5193;51.032;6.356;2022-12-29T09:18:37;3.00;;;1.03;;
10295;SDS011;5193;51.032;6.356;2022-12-29T09:21:04;4.33;;;0.80;;
10295;SDS011;5193;51.032;6.356;2022-12-29T09:23:32;7.90;;;1.47;;
10295;SDS011;5193;51.032;6.356;2022-12-29T09:25:58;2.57;;;0.90;;
10295;SDS011;5193;51.032;6.356;2022-12-29T09:28:24;6.37;;;1.33;;
10295;SDS011;5193;51.032;6.356;2022-12-29T09:30:49;2.63;;;1.00;;
10295;SDS011;5193;51.032;6.356;2022-12-29T09:33:16;13.80;;;1.20;;
10295;SDS011;5193;51.032;6.356;2022-12-29T09:35:43;6.83;;;1.10;;
10295;SDS011;5193;51.032;6.356;2022-12-29T09:38:09;6.87;;;1.33;;
10295;SDS011;5193;51.032;6.356;2022-12-29T09:40:35;5.30;;;1.40;;
10295;SDS011;5193;51.032;6.356;2022-12-29T09:48:37;7.20;;;1.03;;
10295;SDS011;5193;51.032;6.356;2022-12-29T09:51:16;2.73;;;0.90;;
10295;SDS011;5193;51.032;6.356;2022-12-29T09:56:54;3.50;;;0.70;;
10295;SDS011;5193;51.032;6.356;2022-12-29T09:59:22;5.43;;;0.73;;
10295;SDS011;5193;51.032;6.356;2022-12-29T10:04:35;2.63;;;0.90;;
10295;SDS011;5193;51.032;6.356;2022-12-29T10:07:02;4.40;;;1.00;;
10295;SDS011;5193;51.032;6.356;2022-12-29T10:18:05;5.77;;;1.03;;
10295;SDS011;5193;51.032;6.356;2022-12-29T10:25:52;3.27;;;1.00;;
10295;SDS011;5193;51.032;6.356;2022-12-29T10:28:24;6.23;;;1.60;;
10295;SDS011;5193;51.032;6.356;2022-12-29T10:31:03;4.77;;;1.10;;
10295;SDS011;5193;51.032;6.356;2022-12-29T10:33:35;8.27;;;1.20;;
10295;SDS011;5193;51.032;6.356;2022-12-29T10:36:17;9.80;;;1.10;;
10295;SDS011;5193;51.032;6.356;2022-12-29T10:41:39;5.43;;;1.17;;
10295;SDS011;5193;51.032;6.356;2022-12-29T10:44:10;4.03;;;1.10;;
10295;SDS011;5193;51.032;6.356;2022-12-29T10:46:40;5.20;;;0.97;;
10295;SDS011;5193;51.032;6.356;2022-12-29T10:49:11;3.33;;;0.80;;
10295;SDS011;5193;51.032;6.356;2022-12-29T10:51:41;4.87;;;1.47;;
10295;SDS011;5193;51.032;6.356;2022-12-29T10:54:21;8.30;;;1.40;;
10295;SDS011;5193;51.032;6.356;2022-12-29T10:57:08;2.80;;;0.83;;
10295;SDS011;5193;51.032;6.356;2022-12-29T10:59:38;2.60;;;0.80;;
10295;SDS011;5193;51.032;6.356;2022-12-29T11:07:19;2.70;;;0.93;;
10295;SDS011;5193;51.032;6.356;2022-12-29T11:09:46;6.10;;;1.10;;
10295;SDS011;5193;51.032;6.356;2022-12-29T11:15:01;5.73;;;0.80;;
10295;SDS011;5193;51.032;6.356;2022-12-29T11:17:47;7.30;;;1.30;;
10295;SDS011;5193;51.032;6.356;2022-12-29T11:20:37;3.13;;;0.67;;
10295;SDS011;5193;51.032;6.356;2022-12-29T11:23:03;8.13;;;1.40;;
10295;SDS011;5193;51.032;6.356;2022-12-29T11:25:31;4.67;;;1.03;;
10295;SDS011;5193;51.032;6.356;2022-12-29T11:27:57;8.53;;;1.23;;
10295;SDS011;5193;51.032;6.356;2022-12-29T11:30:24;10.03;;;1.10;;
10295;SDS011;5193;51.032;6.356;2022-12-29T11:32:53;5.47;;;1.17;;
10295;SDS011;5193;51.032;6.356;2022-12-29T11:35:32;1.27;;;0.57;;
10295;SDS011;5193;51.032;6.356;2022-12-29T11:38:00;8.67;;;1.80;;
10295;SDS011;5193;51.032;6.356;2022-12-29T11:40:27;3.13;;;0.97;;
10295;SDS011;5193;51.032;6.356;2022-12-29T11:42:55;6.17;;;1.03;;
10295;SDS011;5193;51.032;6.356;2022-12-29T11:45:24;2.80;;;0.77;;
10295;SDS011;5193;51.032;6.356;2022-12-29T11:48:07;3.53;;;0.80;;
10295;SDS011;5193;51.032;6.356;2022-12-29T11:50:40;3.40;;;1.57;;
10295;SDS011;5193;51.032;6.356;2022-12-29T11:53:18;4.90;;;1.00;;
10295;SDS011;5193;51.032;6.356;2022-12-29T11:55:58;7.90;;;1.23;;
10295;SDS011;5193;51.032;6.356;2022-12-29T11:58:30;1.87;;;0.60;;
10295;SDS011;5193;51.032;6.356;2022-12-29T12:01:17;4.33;;;1.50;;
10295;SDS011;5193;51.032;6.356;2022-12-29T12:04:00;3.63;;;0.90;;
10295;SDS011;5193;51.032;6.356;2022-12-29T12:06:43;3.63;;;1.17;;
10295;SDS011;5193;51.032;6.356;2022-12-29T12:09:18;4.83;;;0.80;;
10295;SDS011;5193;51.032;6.356;2022-12-29T12:11:48;4.80;;;1.17;;
10295;SDS011;5193;51.032;6.356;2022-12-29T12:14:23;5.97;;;1.50;;
10295;SDS011;5193;51.032;6.356;2022-12-29T12:16:53;3.93;;;0.77;;
10295;SDS011;5193;51.032;6.356;2022-12-29T12:19:32;3.63;;;1.63;;
10295;SDS011;5193;51.032;6.356;2022-12-29T12:25:37;4.97;;;1.20;;
10295;SDS011;5193;51.032;6.356;2022-12-29T12:31:15;6.27;;;1.47;;
10295;SDS011;5193;51.032;6.356;2022-12-29T12:34:02;8.77;;;1.47;;
10295;SDS011;5193;51.032;6.356;2022-12-29T12:42:15;4.00;;;0.50;;
10295;SDS011;5193;51.032;6.356;2022-12-29T12:59:15;2.40;;;0.70;;
10295;SDS011;5193;51.032;6.356;2022-12-29T13:01:57;2.00;;;0.83;;
10295;SDS011;5193;51.032;6.356;2022-12-29T13:05:03;4.27;;;1.30;;
10295;SDS011;5193;51.032;6.356;2022-12-29T13:15:51;3.70;;;0.93;;
10295;SDS011;5193;51.032;6.356;2022-12-29T13:21:00;6.37;;;1.00;;
10295;SDS011;5193;51.032;6.356;2022-12-29T13:23:42;2.93;;;0.87;;
10295;SDS011;5193;51.032;6.356;2022-12-29T13:26:20;3.10;;;1.30;;
10295;SDS011;5193;51.032;6.356;2022-12-29T13:29:17;7.60;;;1.60;;
10295;SDS011;5193;51.032;6.356;2022-12-29T13:32:35;3.73;;;1.33;;
10295;SDS011;5193;51.032;6.356;2022-12-29T13:37:18;2.93;;;1.00;;
10295;SDS011;5193;51.032;6.356;2022-12-29T13:39:51;2.30;;;0.97;;
10295;SDS011;5193;51.032;6.356;2022-12-29T13:42:20;4.57;;;0.90;;
10295;SDS011;5193;51.032;6.356;2022-12-29T13:44:55;3.63;;;1.00;;
10295;SDS011;5193;51.032;6.356;2022-12-29T13:47:33;4.93;;;1.17;;
10295;SDS011;5193;51.032;6.356;2022-12-29T13:50:13;3.93;;;0.90;;
10295;SDS011;5193;51.032;6.356;2022-12-29T13:52:47;3.13;;;1.10;;
10295;SDS011;5193;51.032;6.356;2022-12-29T13:55:26;5.93;;;1.20;;
10295;SDS011;5193;51.032;6.356;2022-12-29T14:01:03;1.90;;;0.60;;
10295;SDS011;5193;51.032;6.356;2022-12-29T14:08:47;6.97;;;1.07;;
10295;SDS011;5193;51.032;6.356;2022-12-29T14:11:15;3.67;;;1.00;;
10295;SDS011;5193;51.032;6.356;2022-12-29T14:13:43;4.20;;;1.10;;
10295;SDS011;5193;51.032;6.356;2022-12-29T14:16:21;5.63;;;1.10;;
10295;SDS011;5193;51.032;6.356;2022-12-29T14:18:56;6.50;;;1.10;;
10295;SDS011;5193;51.032;6.356;2022-12-29T14:21:49;6.07;;;1.83;;
10295;SDS011;5193;51.032;6.356;2022-12-29T14:26:57;8.30;;;1.30;;
10295;SDS011;5193;51.032;6.356;2022-12-29T14:31:49;5.63;;;1.53;;
10295;SDS011;5193;51.032;6.356;2022-12-29T14:36:57;3.40;;;1.00;;
10295;SDS011;5193;51.032;6.356;2022-12-29T14:44:33;4.13;;;1.40;;
10295;SDS011;5193;51.032;6.356;2022-12-29T14:47:11;8.10;;;1.40;;
10295;SDS011;5193;51.032;6.356;2022-12-29T14:49:56;3.57;;;1.00;;
10295;SDS011;5193;51.032;6.356;2022-12-29T14:57:41;4.23;;;1.53;;
10295;SDS011;5193;51.032;6.356;2022-12-29T15:00:18;2.10;;;0.93;;
10295;SDS011;5193;51.032;6.356;2022-12-29T15:02:46;5.90;;;1.03;;
10295;SDS011;5193;51.032;6.356;2022-12-29T15:05:35;5.97;;;1.23;;
10295;SDS011;5193;51.032;6.356;2022-12-29T15:08:16;7.27;;;1.17;;
10295;SDS011;5193;51.032;6.356;2022-12-29T15:10:57;4.03;;;0.97;;
10295;SDS011;5193;51.032;6.356;2022-12-29T15:13:38;4.70;;;1.43;;
10295;SDS011;5193;51.032;6.356;2022-12-29T15:16:20;2.20;;;0.80;;
10295;SDS011;5193;51.032;6.356;2022-12-29T15:18:48;10.27;;;1.70;;
10295;SDS011;5193;51.032;6.356;2022-12-29T15:21:14;6.77;;;1.23;;
10295;SDS011;5193;51.032;6.356;2022-12-29T15:23:42;8.10;;;2.10;;
10295;SDS011;5193;51.032;6.356;2022-12-29T15:26:09;6.33;;;1.40;;
10295;SDS011;5193;51.032;6.356;2022-12-29T15:28:40;9.10;;;1.90;;
10295;SDS011;5193;51.032;6.356;2022-12-29T15:31:14;8.17;;;1.33;;
10295;SDS011;5193;51.032;6.356;2022-12-29T15:33:41;7.17;;;1.30;;
10295;SDS011;5193;51.032;6.356;2022-12-29T15:36:22;7.73;;;1.67;;
10295;SDS011;5193;51.032;6.356;2022-12-29T15:38:52;12.10;;;1.97;;
10295;SDS011;5193;51.032;6.356;2022-12-29T15:41:26;4.53;;;1.47;;
10295;SDS011;5193;51.032;6.356;2022-12-29T15:44:20;8.50;;;1.23;;
10295;SDS011;5193;51.032;6.356;2022-12-29T15:46:50;4.30;;;1.30;;
10295;SDS011;5193;51.032;6.356;2022-12-29T15:49:16;13.50;;;2.17;;
10295;SDS011;5193;51.032;6.356;2022-12-29T15:51:42;5.53;;;1.40;;
10295;SDS011;5193;51.032;6.356;2022-12-29T15:54:15;2.37;;;0.77;;
10295;SDS011;5193;51.032;6.356;2022-12-29T15:56:43;7.73;;;1.40;;
10295;SDS011;5193;51.032;6.356;2022-12-29T15:59:22;8.50;;;1.60;;
10295;SDS011;5193;51.032;6.356;2022-12-29T16:01:49;7.13;;;1.60;;
10295;SDS011;5193;51.032;6.356;2022-12-29T16:04:15;7.00;;;1.80;;
10295;SDS011;5193;51.032;6.356;2022-12-29T16:06:45;7.00;;;1.60;;
10295;SDS011;5193;51.032;6.356;2022-12-29T16:09:40;11.83;;;2.13;;
10295;SDS011;5193;51.032;6.356;2022-12-29T16:12:17;9.67;;;1.40;;
10295;SDS011;5193;51.032;6.356;2022-12-29T16:14:47;8.20;;;1.80;;
10295;SDS011;5193;51.032;6.356;2022-12-29T16:17:17;7.77;;;1.40;;
10295;SDS011;5193;51.032;6.356;2022-12-29T16:20:34;5.10;;;1.37;;
10295;SDS011;5193;51.032;6.356;2022-12-29T16:22:46;5.23;;;1.57;;
10295;SDS011;5193;51.032;6.356;2022-12-29T16:25:25;9.97;;;2.17;;
10295;SDS011;5193;51.032;6.356;2022-12-29T16:27:56;9.00;;;2.20;;
10295;SDS011;5193;51.032;6.356;2022-12-29T16:30:24;11.27;;;2.57;;
10295;SDS011;5193;51.032;6.356;2022-12-29T16:32:58;18.80;;;2.77;;
10295;SDS011;5193;51.032;6.356;2022-12-29T16:35:29;13.37;;;2.57;;
10295;SDS011;5193;51.032;6.356;2022-12-29T16:38:07;8.50;;;3.27;;
10295;SDS011;5193;51.032;6.356;2022-12-29T16:40:38;16.13;;;3.17;;
10295;SDS011;5193;51.032;6.356;2022-12-29T16:43:31;8.37;;;2.47;;
10295;SDS011;5193;51.032;6.356;2022-12-29T16:48:32;16.53;;;5.33;;
10295;SDS011;5193;51.032;6.356;2022-12-29T16:51:14;15.23;;;4.47;;
10295;SDS011;5193;51.032;6.356;2022-12-29T16:53:42;12.00;;;4.73;;
10295;SDS011;5193;51.032;6.356;2022-12-29T16:56:17;14.20;;;3.73;;
10295;SDS011;5193;51.032;6.356;2022-12-29T16:58:50;9.50;;;2.30;;
10295;SDS011;5193;51.032;6.356;2022-12-29T17:01:20;15.60;;;5.10;;
10295;SDS011;5193;51.032;6.356;2022-12-29T17:03:53;14.63;;;4.53;;
10295;SDS011;5193;51.032;6.356;2022-12-29T17:06:23;14.73;;;2.50;;
10295;SDS011;5193;51.032;6.356;2022-12-29T17:08:49;11.03;;;4.73;;
10295;SDS011;5193;51.032;6.356;2022-12-29T17:11:31;13.13;;;2.90;;
10295;SDS011;5193;51.032;6.356;2022-12-29T17:17:06;16.00;;;3.53;;
10295;SDS011;5193;51.032;6.356;2022-12-29T17:19:55;16.77;;;4.13;;
10295;SDS011;5193;51.032;6.356;2022-12-29T17:22:25;10.90;;;3.30;;
10295;SDS011;5193;51.032;6.356;2022-12-29T17:24:56;7.60;;;2.90;;
10295;SDS011;5193;51.032;6.356;2022-12-29T17:27:24;18.33;;;6.30;;
10295;SDS011;5193;51.032;6.356;2022-12-29T17:29:54;11.13;;;4.50;;
10295;SDS011;5193;51.032;6.356;2022-12-29T17:32:22;15.00;;;4.27;;
10295;SDS011;5193;51.032;6.356;2022-12-29T17:34:48;23.77;;;6.97;;
10295;SDS011;5193;51.032;6.356;2022-12-29T17:37:26;17.83;;;3.43;;
10295;SDS011;5193;51.032;6.356;2022-12-29T17:39:54;8.63;;;3.37;;
10295;SDS011;5193;51.032;6.356;2022-12-29T17:42:20;9.57;;;3.27;;